createdAt,value
2019-01-21T00:01:45.074Z,23.32
2019-01-21T00:04:16.495Z,23.92
2019-01-21T00:06:47.126Z,23.90
2019-01-21T00:09:17.786Z,22.85
2019-01-21T00:11:48.416Z,21.70
2019-01-21T00:14:19.490Z,21.10
2019-01-21T00:16:50.091Z,21.57
2019-01-21T00:19:20.708Z,21.62
2019-01-21T00:21:51.352Z,24.37
2019-01-21T00:24:22.015Z,22.58
2019-01-21T00:26:52.663Z,21.20
2019-01-21T00:29:23.307Z,22.90
2019-01-21T00:31:53.946Z,23.12
2019-01-21T00:34:24.576Z,20.25
2019-01-21T00:36:55.221Z,21.80
2019-01-21T00:39:25.870Z,22.98
2019-01-21T00:41:56.505Z,20.02
2019-01-21T00:44:27.168Z,21.00
2019-01-21T00:46:57.801Z,22.17
2019-01-21T00:49:28.418Z,23.73
2019-01-21T00:51:59.213Z,21.87
2019-01-21T00:54:29.866Z,22.85
2019-01-21T00:57:00.471Z,21.93
2019-01-21T00:59:31.086Z,22.25
2019-01-21T01:02:01.741Z,22.87
2019-01-21T01:04:33.574Z,22.70
2019-01-21T01:07:04.203Z,23.65
2019-01-21T01:09:34.850Z,20.57
2019-01-21T01:12:05.487Z,24.52
2019-01-21T01:14:36.146Z,24.72
2019-01-21T01:17:06.800Z,25.72
2019-01-21T01:19:37.965Z,30.45
2019-01-21T01:22:08.606Z,31.30
2019-01-21T01:24:39.263Z,26.37
2019-01-21T01:27:09.880Z,25.65
2019-01-21T01:29:40.546Z,23.73
2019-01-21T01:32:11.145Z,24.00
2019-01-21T01:34:41.815Z,21.75
2019-01-21T01:37:12.419Z,22.73
2019-01-21T01:39:43.085Z,23.35
2019-01-21T01:42:13.719Z,21.85
2019-01-21T01:44:44.379Z,23.90
2019-01-21T01:47:14.977Z,24.10
2019-01-21T01:49:46.195Z,21.55
2019-01-21T01:52:16.945Z,24.18
2019-01-21T01:54:47.599Z,24.90
2019-01-21T01:57:19.372Z,22.95
2019-01-21T01:59:49.993Z,23.18
2019-01-21T02:02:20.640Z,22.52
2019-01-21T02:04:52.415Z,23.07
2019-01-21T02:07:23.089Z,21.57
2019-01-21T02:09:53.736Z,22.13
2019-01-21T02:12:24.412Z,23.32
2019-01-21T02:14:55.114Z,21.80
2019-01-21T02:17:25.794Z,21.93
2019-01-21T02:20:02.325Z,21.97
2019-01-21T02:22:34.631Z,21.05
2019-01-21T02:25:06.981Z,21.50
2019-01-21T02:28:08.249Z,23.77
2019-01-21T02:31:17.368Z,22.37
2019-01-21T02:34:00.955Z,21.55
2019-01-21T02:36:44.999Z,20.90
2019-01-21T02:39:31.701Z,20.50
2019-01-21T02:42:06.752Z,21.97
2019-01-21T02:44:56.258Z,21.85
2019-01-21T02:47:34.143Z,20.15
2019-01-21T02:50:18.044Z,21.85
2019-01-21T02:53:21.150Z,21.93
2019-01-21T02:56:21.361Z,22.20
2019-01-21T02:59:26.202Z,22.58
2019-01-21T03:02:32.633Z,20.08
2019-01-21T03:05:23.404Z,20.62
2019-01-21T03:08:12.973Z,21.35
2019-01-21T03:11:23.488Z,20.30
2019-01-21T03:14:10.362Z,21.15
2019-01-21T03:17:06.199Z,20.60
2019-01-21T03:19:55.710Z,19.15
2019-01-21T03:22:51.248Z,18.23
2019-01-21T03:25:37.811Z,19.67
2019-01-21T03:28:54.580Z,18.00
2019-01-21T03:32:12.905Z,19.67
2019-01-21T03:35:04.971Z,18.02
2019-01-21T03:37:58.817Z,18.55
2019-01-21T03:40:53.840Z,18.40
2019-01-21T03:43:58.885Z,18.35
2019-01-21T03:46:51.783Z,17.45
2019-01-21T03:49:29.266Z,20.50
2019-01-21T03:52:28.123Z,21.80
2019-01-21T03:55:00.561Z,19.80
2019-01-21T03:57:35.618Z,20.97
2019-01-21T04:00:25.465Z,21.75
2019-01-21T04:03:12.017Z,17.67
2019-01-21T04:05:56.737Z,18.02
2019-01-21T04:08:59.954Z,18.98
2019-01-21T04:11:40.659Z,19.10
2019-01-21T04:14:50.147Z,17.00
2019-01-21T04:18:01.298Z,18.92
2019-01-21T04:21:03.125Z,17.37
2019-01-21T04:24:02.004Z,18.05
2019-01-21T04:26:42.956Z,17.98
2019-01-21T04:29:35.838Z,16.95
2019-01-21T04:32:10.907Z,15.65
2019-01-21T04:35:00.463Z,17.98
2019-01-21T04:37:38.345Z,16.40
2019-01-21T04:40:19.291Z,17.00
2019-01-21T04:43:15.186Z,18.32
2019-01-21T04:46:19.107Z,16.27
2019-01-21T04:49:06.127Z,18.00
2019-01-21T04:51:43.591Z,18.02
2019-01-21T04:54:27.167Z,18.20
2019-01-21T04:57:14.178Z,16.97
2019-01-21T05:00:09.999Z,16.90
2019-01-21T05:03:17.681Z,16.48
2019-01-21T05:06:24.766Z,11.05
2019-01-21T05:09:08.321Z,16.40
2019-01-21T05:12:02.490Z,16.97
2019-01-21T05:14:44.009Z,17.00
2019-01-21T05:17:36.844Z,17.37
2019-01-21T05:20:11.375Z,15.45
2019-01-21T05:22:50.416Z,16.90
2019-01-21T05:25:45.923Z,15.70
2019-01-21T05:28:37.005Z,14.78
2019-01-21T05:31:26.978Z,12.47
2019-01-21T05:34:16.564Z,17.62
2019-01-21T05:36:59.996Z,14.50
2019-01-21T05:39:56.374Z,16.23
2019-01-21T05:42:36.838Z,17.27
2019-01-21T05:45:50.394Z,15.85
2019-01-21T05:48:53.786Z,17.65
2019-01-21T05:52:02.927Z,7.28
2019-01-21T05:54:43.566Z,15.58
2019-01-21T05:57:57.678Z,17.07
2019-01-21T06:00:45.095Z,16.37
2019-01-21T06:03:32.122Z,16.12
2019-01-21T06:06:28.494Z,18.15
2019-01-21T06:09:37.590Z,17.20
2019-01-21T06:12:34.672Z,17.27
2019-01-21T06:15:33.254Z,14.55
2019-01-21T06:18:22.583Z,16.23
2019-01-21T06:21:06.666Z,16.45
2019-01-21T06:23:53.183Z,16.37
2019-01-21T06:26:48.865Z,15.30
2019-01-21T06:29:35.640Z,17.20
2019-01-21T06:32:51.102Z,15.98
2019-01-21T06:35:43.913Z,16.00
2019-01-21T06:38:30.506Z,14.50
2019-01-21T06:41:17.244Z,17.48
2019-01-21T06:43:57.725Z,15.35
2019-01-21T06:46:51.845Z,14.70
2019-01-21T06:49:32.596Z,16.95
2019-01-21T06:52:25.075Z,17.07
2019-01-21T06:55:20.668Z,14.28
2019-01-21T06:58:19.334Z,14.05
2019-01-21T07:00:58.047Z,14.13
2019-01-21T07:03:47.642Z,15.95
2019-01-21T07:06:54.671Z,17.40
2019-01-21T07:09:57.718Z,14.68
2019-01-21T07:12:48.490Z,15.95
2019-01-21T07:15:34.919Z,16.42
2019-01-21T07:18:12.492Z,16.55
2019-01-21T07:21:05.148Z,16.57
2019-01-21T07:23:43.178Z,15.18
2019-01-21T07:26:32.923Z,14.38
2019-01-21T07:29:07.985Z,17.60
2019-01-21T07:31:45.476Z,16.02
2019-01-21T07:34:32.203Z,16.32
2019-01-21T07:37:12.736Z,17.20
2019-01-21T07:40:00.088Z,17.75
2019-01-21T07:43:00.518Z,15.35
2019-01-21T07:45:41.451Z,16.32
2019-01-21T07:48:21.192Z,17.27
2019-01-21T07:51:13.698Z,17.90
2019-01-21T07:54:17.041Z,15.32
2019-01-21T07:57:09.781Z,18.60
2019-01-21T08:00:17.470Z,13.83
2019-01-21T08:03:10.181Z,12.25
2019-01-21T08:05:48.076Z,20.02
2019-01-21T08:08:29.633Z,12.43
2019-01-21T08:11:37.414Z,11.48
2019-01-21T08:14:18.037Z,16.30
2019-01-21T08:17:25.671Z,16.45
2019-01-21T08:20:21.980Z,17.17
2019-01-21T08:23:11.885Z,16.02
2019-01-21T08:26:11.400Z,17.20
2019-01-21T08:29:07.058Z,13.10
2019-01-21T08:31:47.965Z,17.80
2019-01-21T08:34:43.320Z,16.80
2019-01-21T08:37:21.149Z,18.33
2019-01-21T08:40:07.494Z,15.07
2019-01-21T08:43:17.646Z,18.40
2019-01-21T08:46:10.012Z,19.87
2019-01-21T08:48:56.605Z,15.03
2019-01-21T08:51:46.455Z,15.37
2019-01-21T08:54:30.531Z,16.93
2019-01-21T08:57:23.363Z,17.43
2019-01-21T09:00:21.772Z,19.40
2019-01-21T09:03:22.998Z,17.77
2019-01-21T09:06:19.783Z,18.77
2019-01-21T09:09:13.639Z,19.40
2019-01-21T09:12:29.845Z,17.30
2019-01-21T09:15:16.705Z,19.23
2019-01-21T09:18:29.565Z,17.30
2019-01-21T09:21:19.869Z,19.67
2019-01-21T09:24:05.676Z,19.30
2019-01-21T09:27:25.873Z,19.63
2019-01-21T09:29:56.186Z,22.03
2019-01-21T09:32:41.504Z,21.43
2019-01-21T09:35:35.754Z,20.17
2019-01-21T09:38:26.375Z,19.80
2019-01-21T09:41:18.263Z,21.53
2019-01-21T09:43:57.498Z,22.87
2019-01-21T09:46:48.410Z,20.97
2019-01-21T09:49:18.379Z,21.37
2019-01-21T09:51:53.910Z,18.37
2019-01-21T09:54:25.299Z,19.07
2019-01-21T09:57:00.664Z,20.07
2019-01-21T09:59:35.973Z,17.87
2019-01-21T10:02:10.189Z,17.57
2019-01-21T10:04:45.644Z,20.50
2019-01-21T10:07:27.347Z,18.63
2019-01-21T10:10:22.219Z,20.00
2019-01-21T10:13:12.945Z,19.83
2019-01-21T10:16:11.501Z,18.07
2019-01-21T10:18:55.206Z,19.10
2019-01-21T10:21:49.529Z,18.73
2019-01-21T10:24:46.105Z,19.30
2019-01-21T10:27:23.545Z,18.53
2019-01-21T10:30:25.632Z,18.50
2019-01-21T10:33:06.509Z,17.67
2019-01-21T10:35:53.042Z,17.93
2019-01-21T10:38:51.619Z,18.10
2019-01-21T10:41:48.010Z,19.77
2019-01-21T10:44:29.824Z,19.27
2019-01-21T10:47:10.421Z,19.80
2019-01-21T10:49:59.871Z,19.83
2019-01-21T10:52:46.802Z,19.43
2019-01-21T10:55:27.343Z,19.23
2019-01-21T10:58:38.316Z,18.57
2019-01-21T11:01:35.540Z,20.27
2019-01-21T11:04:35.535Z,20.97
2019-01-21T11:07:31.382Z,19.53
2019-01-21T11:10:31.224Z,18.43
2019-01-21T11:13:09.954Z,18.00
2019-01-21T11:15:50.543Z,19.33
2019-01-21T11:19:15.219Z,16.60
2019-01-21T11:21:50.256Z,16.73
2019-01-21T11:24:28.801Z,16.97
2019-01-21T11:27:19.270Z,19.20
2019-01-21T11:30:19.712Z,18.03
2019-01-21T11:33:15.389Z,17.30
2019-01-21T11:36:11.211Z,17.73
2019-01-21T11:38:57.927Z,16.47
2019-01-21T11:41:48.905Z,17.47
2019-01-21T11:44:44.354Z,15.87
2019-01-21T11:48:04.736Z,19.17
2019-01-21T11:50:42.790Z,17.27
2019-01-21T11:53:29.463Z,17.87
2019-01-21T11:56:19.076Z,17.57
2019-01-21T11:59:01.722Z,17.10
2019-01-21T12:01:56.298Z,17.60
2019-01-21T12:04:50.564Z,17.43
2019-01-21T12:07:44.712Z,17.07
2019-01-21T12:10:34.604Z,18.43
2019-01-21T12:13:57.065Z,16.93
2019-01-21T12:17:02.418Z,15.83
2019-01-21T12:20:17.234Z,17.07
2019-01-21T12:22:58.158Z,15.13
2019-01-21T12:25:36.425Z,15.63
2019-01-21T12:28:34.779Z,14.73
2019-01-21T12:31:24.791Z,15.80
2019-01-21T12:34:12.907Z,15.27
2019-01-21T12:36:56.376Z,15.33
2019-01-21T12:39:52.016Z,15.63
2019-01-21T12:42:31.746Z,15.03
2019-01-21T12:45:21.729Z,15.10
2019-01-21T12:48:08.269Z,15.00
2019-01-21T12:51:08.748Z,16.87
2019-01-21T12:54:08.787Z,14.87
2019-01-21T12:57:25.601Z,15.13
2019-01-21T13:00:06.279Z,13.93
2019-01-21T13:03:11.058Z,14.40
2019-01-21T13:06:08.168Z,12.70
2019-01-21T13:08:43.170Z,12.53
2019-01-21T13:11:18.200Z,14.07
2019-01-21T13:13:54.043Z,13.60
2019-01-21T13:16:38.816Z,13.97
2019-01-21T13:19:46.663Z,14.07
2019-01-21T13:22:33.123Z,12.37
2019-01-21T13:25:19.606Z,11.10
2019-01-21T13:28:15.250Z,10.80
2019-01-21T13:31:13.231Z,10.67
2019-01-21T13:33:57.484Z,10.00
2019-01-21T13:36:58.852Z,10.77
2019-01-21T13:39:44.609Z,10.33
2019-01-21T13:42:19.825Z,10.67
2019-01-21T13:45:13.649Z,11.47
2019-01-21T13:48:08.432Z,11.47
2019-01-21T13:51:00.527Z,9.93
2019-01-21T13:53:40.899Z,11.27
2019-01-21T13:56:45.695Z,10.97
2019-01-21T13:59:59.671Z,12.20
2019-01-21T14:02:41.169Z,11.17
2019-01-21T14:05:31.755Z,12.97
2019-01-21T14:08:16.637Z,13.33
2019-01-21T14:14:14.516Z,13.83
2019-01-21T14:21:36.280Z,13.17
2019-01-21T14:24:17.816Z,13.67
2019-01-21T14:30:59.902Z,12.80
2019-01-21T14:33:57.695Z,12.77
2019-01-21T14:37:03.942Z,13.00
2019-01-21T14:45:53.441Z,14.43
2019-01-21T14:52:18.586Z,13.23
2019-01-21T14:55:29.255Z,13.50
2019-01-21T14:58:13.322Z,13.70
2019-01-21T15:01:24.002Z,12.87
2019-01-21T15:04:11.164Z,13.03
2019-01-21T15:14:05.531Z,13.23
2019-01-21T15:22:54.939Z,13.73
2019-01-21T15:26:03.423Z,12.70
2019-01-21T15:35:05.852Z,13.90
2019-01-21T15:38:16.444Z,13.57
2019-01-21T15:41:03.044Z,12.63
2019-01-21T15:43:47.740Z,13.53
2019-01-21T15:46:40.265Z,13.27
2019-01-21T15:53:00.802Z,12.30
2019-01-21T15:59:12.908Z,13.77
2019-01-21T16:02:02.830Z,14.17
2019-01-21T16:04:51.959Z,16.40
2019-01-21T16:07:45.145Z,15.97
2019-01-21T16:10:29.385Z,17.03
2019-01-21T16:13:13.937Z,19.40
2019-01-21T16:16:05.930Z,17.93
2019-01-21T16:22:17.803Z,16.93
2019-01-21T16:25:10.889Z,14.70
2019-01-21T16:31:17.479Z,18.00
2019-01-21T16:34:02.169Z,15.97
2019-01-21T16:37:12.817Z,16.00
2019-01-21T16:40:19.467Z,16.17
2019-01-21T16:43:10.970Z,18.17
2019-01-21T16:45:55.219Z,18.40
2019-01-21T16:48:37.942Z,16.97
2019-01-21T16:51:31.106Z,19.23
2019-01-21T16:54:21.736Z,19.47
2019-01-21T16:57:25.248Z,18.10
2019-01-21T17:00:00.511Z,21.30
2019-01-21T17:02:50.195Z,19.07
2019-01-21T17:05:32.910Z,14.30
2019-01-21T17:08:15.451Z,15.80
2019-01-21T17:10:57.931Z,17.17
2019-01-21T17:13:48.182Z,16.20
2019-01-21T17:16:31.011Z,19.70
2019-01-21T17:19:13.940Z,21.80
2019-01-21T17:21:57.833Z,22.53
2019-01-21T17:25:12.611Z,21.53
2019-01-21T17:27:40.394Z,24.27
2019-01-21T17:30:30.339Z,24.87
2019-01-21T17:33:14.381Z,24.23
2019-01-21T17:35:57.440Z,25.47
2019-01-21T17:38:43.572Z,23.77
2019-01-21T17:41:29.649Z,24.13
2019-01-21T17:44:18.873Z,26.03
2019-01-21T17:47:02.414Z,23.37
2019-01-21T17:52:46.235Z,24.07
2019-01-21T17:55:36.318Z,24.20
2019-01-21T17:58:27.120Z,22.63
2019-01-21T18:01:39.357Z,24.97
2019-01-21T18:04:28.088Z,27.07
2019-01-21T18:10:21.819Z,26.00
2019-01-21T18:13:10.168Z,26.07
2019-01-21T18:15:52.925Z,30.10
2019-01-21T18:21:40.208Z,26.77
2019-01-21T18:24:29.226Z,25.63
2019-01-21T18:27:14.642Z,26.57
2019-01-21T18:30:01.873Z,27.27
2019-01-21T18:33:19.859Z,23.70
2019-01-21T18:35:42.071Z,20.67
2019-01-21T18:38:25.622Z,25.23
2019-01-21T18:41:10.001Z,25.60
2019-01-21T18:43:52.575Z,26.23
2019-01-21T18:46:41.411Z,26.53
2019-01-21T18:56:16.546Z,24.57
2019-01-21T18:58:50.296Z,25.27
2019-01-21T19:01:41.439Z,22.03
2019-01-21T19:07:24.427Z,22.70
2019-01-21T19:10:14.039Z,24.50
2019-01-21T19:15:58.329Z,20.83
2019-01-21T19:18:41.409Z,17.63
2019-01-21T19:21:28.431Z,18.80
2019-01-21T19:24:13.882Z,18.07
2019-01-21T19:27:19.947Z,19.03
2019-01-21T19:29:53.819Z,19.20
2019-01-21T19:32:38.251Z,20.10
2019-01-21T19:38:42.932Z,16.47
2019-01-21T19:41:26.630Z,16.43
2019-01-21T19:44:14.515Z,16.83
2019-01-21T19:46:59.088Z,18.40
2019-01-21T19:49:47.925Z,20.03
2019-01-21T19:52:37.971Z,19.33
2019-01-21T19:55:25.677Z,21.23
2019-01-21T19:58:36.580Z,20.37
2019-01-21T20:01:26.000Z,19.17
2019-01-21T20:07:25.606Z,19.43
2019-01-21T20:10:29.421Z,20.13
2019-01-21T20:16:15.019Z,21.13
2019-01-21T20:18:58.201Z,19.07
2019-01-21T20:21:48.136Z,19.40
2019-01-21T20:24:31.067Z,19.60
2019-01-21T20:27:13.873Z,19.13
2019-01-21T20:29:57.452Z,19.53
2019-01-21T20:32:42.435Z,19.25
2019-01-21T20:35:25.382Z,19.97
2019-01-21T20:38:08.836Z,19.23
2019-01-21T20:40:51.377Z,18.12
2019-01-21T20:43:34.541Z,17.95
2019-01-21T20:46:17.563Z,22.87
2019-01-21T20:49:00.460Z,18.93
2019-01-21T20:54:44.221Z,18.07
2019-01-21T20:57:34.115Z,15.98
2019-01-21T21:00:24.140Z,16.40
2019-01-21T21:03:34.895Z,16.43
2019-01-21T21:06:24.451Z,16.07
2019-01-21T21:09:14.324Z,20.15
2019-01-21T21:11:58.908Z,16.33
2019-01-21T21:14:42.744Z,16.25
2019-01-21T21:17:25.205Z,16.12
2019-01-21T21:20:49.086Z,17.05
2019-01-21T21:23:30.094Z,16.65
2019-01-21T21:26:13.008Z,16.32
2019-01-21T21:28:57.788Z,17.30
2019-01-21T21:31:44.854Z,15.53
2019-01-21T21:34:30.056Z,16.97
2019-01-21T21:37:13.286Z,16.62
2019-01-21T21:39:56.357Z,17.27
2019-01-21T21:42:46.322Z,15.60
2019-01-21T21:48:35.385Z,16.05
2019-01-21T21:51:17.983Z,16.40
2019-01-21T21:54:00.827Z,16.00
2019-01-21T21:56:43.619Z,17.17
2019-01-21T21:59:26.864Z,16.67
2019-01-21T22:02:12.828Z,13.78
2019-01-21T22:04:56.604Z,17.07
2019-01-21T22:07:39.471Z,16.17
2019-01-21T22:10:39.671Z,16.35
2019-01-21T22:13:16.557Z,16.52
2019-01-21T22:15:59.618Z,16.10
2019-01-21T22:18:30.469Z,15.75
2019-01-21T22:21:01.091Z,19.05
2019-01-21T22:23:31.580Z,16.82
2019-01-21T22:26:02.209Z,16.67
2019-01-21T22:28:32.787Z,14.65
2019-01-21T22:31:03.632Z,15.55
2019-01-21T22:33:35.019Z,15.50
2019-01-21T22:36:08.519Z,14.75
2019-01-21T22:38:39.083Z,15.50
2019-01-21T22:41:10.459Z,16.23
2019-01-21T22:43:41.142Z,16.23
2019-01-21T22:46:12.535Z,17.20
2019-01-21T22:48:43.480Z,17.07
2019-01-21T22:51:14.484Z,16.85
2019-01-21T22:53:47.910Z,17.55
2019-01-21T22:56:18.568Z,15.80
2019-01-21T22:58:49.199Z,16.15
2019-01-21T23:01:23.172Z,15.63
2019-01-21T23:03:53.995Z,15.28
2019-01-21T23:06:24.756Z,16.30
2019-01-21T23:08:55.403Z,14.87
2019-01-21T23:11:26.445Z,15.98
2019-01-21T23:13:57.392Z,14.90
2019-01-21T23:16:29.311Z,14.63
2019-01-21T23:18:59.888Z,15.55
2019-01-21T23:21:32.952Z,15.28
2019-01-21T23:24:03.574Z,14.55
2019-01-21T23:26:34.529Z,15.45
2019-01-21T23:29:05.244Z,15.28
2019-01-21T23:31:35.997Z,15.63
2019-01-21T23:34:07.348Z,15.23
2019-01-21T23:36:38.068Z,15.15
2019-01-21T23:39:09.089Z,16.50
2019-01-21T23:41:39.770Z,15.03
2019-01-21T23:44:10.744Z,15.43
2019-01-21T23:46:41.672Z,13.70
2019-01-21T23:49:12.149Z,13.28
2019-01-21T23:51:42.803Z,13.28
2019-01-21T23:54:13.428Z,15.08
2019-01-21T23:56:43.936Z,15.88
2019-01-21T23:59:14.420Z,12.35
